Time;durP1;ratioP1;P1;durP2;ratioP2;P2;SDS_P1;SDS_P2;PMS_P1;PMS_P2;Temp;Humidity;BMP_temperature;BMP_pressure;BME280_temperature;BME280_humidity;BME280_pressure;Samples;Min_cycle;Max_cycle;Signal;HPM_P1;HPM_P2
2022/07/07 00:01:46;;;;;;;8.48;5.55;;;;;;;19.18;66.17;101811.78;3576295;40;20049;-61
2022/07/07 00:04:11;;;;;;;8.45;5.90;;;;;;;19.22;66.15;101818.75;3576674;40;20064;-61
2022/07/07 00:06:37;;;;;;;8.18;6.10;;;;;;;19.24;65.84;101824.94;3576705;40;20104;-61
2022/07/07 00:09:04;;;;;;;6.78;6.07;;;;;;;19.21;66.86;101814.28;3575779;40;20060;-62
2022/07/07 00:11:30;;;;;;;6.25;5.65;;;;;;;19.12;66.18;101798.69;3575261;40;20399;-61
2022/07/07 00:13:56;;;;;;;7.00;5.75;;;;;;;19.26;66.58;101813.91;3576658;40;20059;-62
2022/07/07 00:16:22;;;;;;;10.13;6.18;;;;;;;19.19;65.89;101804.53;3576462;40;20063;-62
2022/07/07 00:18:49;;;;;;;9.07;5.65;;;;;;;19.24;66.20;101811.28;3575784;40;20044;-61
2022/07/07 00:21:15;;;;;;;8.27;5.93;;;;;;;19.23;66.31;101804.13;3575556;40;20393;-61
2022/07/07 00:23:41;;;;;;;9.20;6.10;;;;;;;19.31;66.06;101805.34;3576818;40;20123;-61
2022/07/07 00:26:07;;;;;;;8.13;5.65;;;;;;;19.32;66.14;101807.09;3578240;40;20101;-62
2022/07/07 00:28:33;;;;;;;7.00;5.82;;;;;;;19.34;65.49;101802.34;3575866;40;20044;-61
2022/07/07 00:30:58;;;;;;;8.23;5.22;;;;;;;19.35;65.80;101799.50;3577926;40;20061;-61
2022/07/07 00:33:24;;;;;;;6.50;5.70;;;;;;;19.37;65.44;101800.22;3575143;40;20165;-61
2022/07/07 00:35:51;;;;;;;7.97;5.03;;;;;;;19.35;65.58;101787.75;3576662;40;20059;-61
2022/07/07 00:38:17;;;;;;;10.05;4.93;;;;;;;19.36;66.09;101784.88;3576314;40;20063;-62
2022/07/07 00:40:43;;;;;;;6.78;4.68;;;;;;;19.33;65.24;101778.81;3579032;40;20068;-61
2022/07/07 00:43:08;;;;;;;7.05;5.00;;;;;;;19.35;64.99;101774.13;3579272;40;20052;-61
2022/07/07 00:45:34;;;;;;;7.70;4.70;;;;;;;19.34;65.58;101777.81;3578161;40;20053;-61
2022/07/07 00:48:00;;;;;;;7.53;4.72;;;;;;;19.33;65.30;101768.78;3577339;40;20052;-62
2022/07/07 00:50:26;;;;;;;8.57;5.05;;;;;;;19.34;65.18;101777.81;3578917;40;20850;-61
2022/07/07 00:52:53;;;;;;;6.30;4.80;;;;;;;19.32;66.00;101771.66;3579907;40;20053;-61
2022/07/07 00:55:19;;;;;;;5.85;4.45;;;;;;;19.07;65.65;101731.94;3578473;40;20060;-61
2022/07/07 00:57:44;;;;;;;6.70;5.03;;;;;;;19.29;65.30;101764.59;3578374;40;20383;-61
2022/07/07 01:00:15;;;;;;;5.50;4.90;;;;;;;19.32;66.32;101766.19;3578814;40;20063;-61
2022/07/07 01:02:42;;;;;;;5.85;4.40;;;;;;;19.31;65.66;101765.31;3577465;40;20052;-61
2022/07/07 01:05:09;;;;;;;7.00;4.38;;;;;;;19.33;65.51;101762.47;3577370;40;20052;-61
2022/07/07 01:07:37;;;;;;;5.78;4.47;;;;;;;19.17;65.75;101733.75;3577253;40;20048;-60
2022/07/07 01:10:07;;;;;;;6.38;4.40;;;;;;;19.31;65.75;101765.31;3578674;40;20743;-62
2022/07/07 01:12:40;;;;;;;7.15;3.92;;;;;;;19.37;66.38;101770.25;3576219;40;20052;-61
2022/07/07 01:15:11;;;;;;;4.70;4.10;;;;;;;19.36;65.57;101763.06;3579364;40;20060;-61
2022/07/07 01:17:38;;;;;;;4.15;3.80;;;;;;;19.35;66.29;101765.94;3578550;40;20395;-61
2022/07/07 01:20:07;;;;;;;4.65;3.92;;;;;;;19.34;66.19;101759.59;3577731;40;20111;-62
2022/07/07 01:22:38;;;;;;;3.75;3.35;;;;;;;19.36;66.22;101762.19;3580170;40;20052;-62
2022/07/07 01:25:07;;;;;;;4.00;3.65;;;;;;;19.35;66.15;101761.34;3579463;40;20072;-61
2022/07/07 01:27:33;;;;;;;4.22;3.83;;;;;;;19.32;66.23;101756.16;3578104;40;20064;-61
2022/07/07 01:29:59;;;;;;;5.05;4.03;;;;;;;19.14;66.26;101723.09;3579338;40;20056;-62
2022/07/07 01:32:27;;;;;;;4.88;3.58;;;;;;;19.37;66.09;101753.88;3577507;40;20059;-61
2022/07/07 01:34:53;;;;;;;5.05;3.80;;;;;;;19.36;66.53;101757.63;3577778;40;20044;-61
2022/07/07 01:37:21;;;;;;;5.05;4.10;;;;;;;19.37;66.57;101747.56;3576096;40;20061;-62
2022/07/07 01:39:48;;;;;;;6.57;4.00;;;;;;;19.20;66.16;101714.41;3578568;40;20064;-61
2022/07/07 01:42:14;;;;;;;4.40;3.70;;;;;;;19.29;66.58;101728.28;3576884;40;20049;-62
2022/07/07 01:44:42;;;;;;;5.55;4.03;;;;;;;19.38;66.25;101741.13;3577211;40;20049;-62
2022/07/07 01:47:12;;;;;;;6.97;3.78;;;;;;;19.32;65.92;101733.47;3576665;40;20138;-61
2022/07/07 01:49:38;;;;;;;6.70;4.10;;;;;;;19.40;66.57;101730.94;3578554;40;20141;-62
2022/07/07 01:52:06;;;;;;;6.40;3.85;;;;;;;19.14;66.37;101684.94;3578821;40;20057;-61
2022/07/07 01:54:35;;;;;;;5.35;3.53;;;;;;;19.36;66.18;101718.56;3574976;40;20064;-62
2022/07/07 01:57:02;;;;;;;5.65;3.78;;;;;;;19.41;66.24;101730.84;3576616;40;20053;-61
2022/07/07 01:59:28;;;;;;;5.25;4.32;;;;;;;19.40;66.78;101731.81;3577636;40;20053;-61
2022/07/07 02:01:54;;;;;;;6.70;3.78;;;;;;;19.41;66.54;101735.41;3577247;40;20048;-62
2022/07/07 02:04:20;;;;;;;3.97;3.63;;;;;;;19.43;66.89;101736.13;3579482;40;20064;-62
2022/07/07 02:06:46;;;;;;;5.43;4.00;;;;;;;19.42;66.32;101738.00;3577192;40;20063;-62
2022/07/07 02:09:11;;;;;;;6.45;3.70;;;;;;;19.42;66.92;101734.41;3575139;40;20063;-62
2022/07/07 02:11:37;;;;;;;5.65;4.32;;;;;;;19.30;67.29;101719.97;3576179;40;20492;-62
2022/07/07 02:14:04;;;;;;;8.70;4.22;;;;;;;19.38;67.53;101730.22;3577941;40;20064;-61
2022/07/07 02:16:31;;;;;;;5.72;4.20;;;;;;;19.30;67.88;101713.66;3575557;40;20056;-62
2022/07/07 02:19:00;;;;;;;9.55;4.22;;;;;;;19.37;67.09;101733.94;3578651;40;20047;-61
2022/07/07 02:21:27;;;;;;;5.05;3.92;;;;;;;19.38;67.40;101717.47;3580034;40;20067;-61
2022/07/07 02:23:57;;;;;;;6.18;4.10;;;;;;;19.37;67.93;101723.03;3580031;40;20350;-62
2022/07/07 02:26:24;;;;;;;8.70;4.10;;;;;;;19.35;67.48;101727.75;3582030;40;20052;-62
2022/07/07 02:28:49;;;;;;;6.78;3.70;;;;;;;19.32;67.92;101714.38;3580111;40;20080;-61
2022/07/07 02:31:15;;;;;;;7.45;4.07;;;;;;;19.37;67.79;101723.88;3580859;40;20353;-62
2022/07/07 02:33:42;;;;;;;7.10;4.40;;;;;;;19.37;68.37;101725.75;3580860;40;20059;-62
2022/07/07 02:36:08;;;;;;;7.95;3.60;;;;;;;19.36;67.80;101722.16;3578506;40;20068;-62
2022/07/07 02:38:36;;;;;;;6.68;3.70;;;;;;;19.38;68.08;101722.91;3577953;40;20049;-61
2022/07/07 02:41:03;;;;;;;4.18;3.60;;;;;;;19.34;68.80;101709.66;3579937;40;20089;-61
2022/07/07 02:43:29;;;;;;;7.15;4.10;;;;;;;19.38;69.25;101716.59;3579426;40;20068;-62
2022/07/07 02:45:55;;;;;;;4.22;3.83;;;;;;;19.35;69.91;101727.75;3577757;40;20064;-61
2022/07/07 02:48:24;;;;;;;5.85;3.80;;;;;;;19.27;69.28;101712.03;3579018;39;20072;-62
2022/07/07 02:50:50;;;;;;;8.13;3.90;;;;;;;19.29;69.40;101711.91;3580383;40;20130;-61
2022/07/07 02:53:18;;;;;;;4.05;3.63;;;;;;;19.26;69.96;101713.03;3578656;40;20047;-62
2022/07/07 02:55:45;;;;;;;6.05;3.95;;;;;;;19.22;69.98;101700.69;3577623;40;20379;-61
2022/07/07 02:58:19;;;;;;;5.40;3.75;;;;;;;19.23;70.06;101707.84;3577273;40;20057;-61
2022/07/07 03:00:47;;;;;;;6.05;3.67;;;;;;;19.24;69.37;101715.88;3579571;40;20074;-61
2022/07/07 03:03:13;;;;;;;5.35;3.45;;;;;;;19.25;69.72;101712.19;3579819;40;20060;-61
2022/07/07 03:05:39;;;;;;;10.00;3.45;;;;;;;19.23;69.43;101714.16;3581447;40;20048;-61
2022/07/07 03:08:05;;;;;;;8.30;3.72;;;;;;;19.23;69.96;101708.72;3581211;40;20383;-61
2022/07/07 03:10:30;;;;;;;5.60;3.35;;;;;;;19.23;70.24;101716.88;3579235;40;20090;-61
2022/07/07 03:12:56;;;;;;;5.68;3.40;;;;;;;19.21;70.71;101721.59;3578577;40;20055;-61
2022/07/07 03:15:22;;;;;;;5.30;3.42;;;;;;;19.20;71.25;101719.88;3580527;40;20068;-61
2022/07/07 03:17:49;;;;;;;6.45;3.42;;;;;;;19.14;72.03;101720.38;3581662;40;20062;-61
2022/07/07 03:20:16;;;;;;;6.53;3.30;;;;;;;19.17;73.01;101724.72;3578309;40;20107;-61
2022/07/07 03:22:43;;;;;;;6.60;3.47;;;;;;;19.11;73.00;101733.41;3579699;40;20052;-61
2022/07/07 03:25:11;;;;;;;4.05;3.40;;;;;;;18.78;73.40;101681.59;3579569;40;20304;-61
2022/07/07 03:27:38;;;;;;;3.15;2.90;;;;;;;18.91;72.29;101724.19;3580187;40;20054;-61
2022/07/07 03:30:08;;;;;;;3.65;2.50;;;;;;;18.85;71.60;101724.69;3580042;40;20044;-61
2022/07/07 03:32:34;;;;;;;3.97;2.65;;;;;;;18.79;72.25;101736.94;3579454;40;20292;-61
2022/07/07 03:35:00;;;;;;;2.25;1.85;;;;;;;18.70;72.36;101727.63;3579384;40;20060;-61
2022/07/07 03:37:26;;;;;;;1.95;1.85;;;;;;;18.58;72.69;101739.50;3579533;40;20707;-61
2022/07/07 03:39:52;;;;;;;2.90;1.95;;;;;;;18.35;74.13;101738.66;3580508;40;20121;-61
2022/07/07 03:42:18;;;;;;;2.35;1.90;;;;;;;18.10;76.10;101734.28;3578107;40;20356;-61
2022/07/07 03:44:43;;;;;;;4.60;2.60;;;;;;;18.02;76.80;101742.22;3577477;40;20117;-61
2022/07/07 03:47:11;;;;;;;3.03;2.72;;;;;;;17.83;78.07;101724.59;3577218;40;20134;-61
2022/07/07 03:49:37;;;;;;;3.67;3.00;;;;;;;17.80;79.18;101726.72;3574663;40;20051;-60
2022/07/07 03:52:03;;;;;;;4.95;3.10;;;;;;;17.70;79.82;101734.69;3578110;40;20067;-60
2022/07/07 03:54:29;;;;;;;4.30;3.30;;;;;;;17.67;80.63;101729.47;3580289;40;20054;-60
2022/07/07 03:56:55;;;;;;;3.72;3.50;;;;;;;17.62;81.52;101734.41;3577705;40;20056;-60
2022/07/07 03:59:20;;;;;;;3.50;3.20;;;;;;;17.63;81.37;101736.13;3581191;40;20060;-61
2022/07/07 04:01:46;;;;;;;6.43;3.65;;;;;;;17.60;81.56;101728.19;3578625;40;20384;-61
2022/07/07 04:04:13;;;;;;;5.07;3.50;;;;;;;17.61;81.65;101729.94;3579276;40;20060;-61
2022/07/07 04:06:39;;;;;;;4.20;3.40;;;;;;;17.59;81.98;101721.03;3576512;40;20074;-61
2022/07/07 04:09:06;;;;;;;3.88;3.55;;;;;;;17.55;81.93;101719.53;3579137;40;20056;-61
2022/07/07 04:11:31;;;;;;;5.18;3.95;;;;;;;17.64;81.92;101722.41;3577878;40;20589;-61
2022/07/07 04:13:57;;;;;;;3.97;3.58;;;;;;;17.66;82.11;101715.97;3580614;40;20067;-61
2022/07/07 04:16:22;;;;;;;4.10;3.67;;;;;;;17.66;81.77;101718.72;3579622;40;20057;-60
2022/07/07 04:18:48;;;;;;;5.25;4.13;;;;;;;17.68;81.73;101704.00;3576193;40;20138;-61
2022/07/07 04:21:14;;;;;;;4.68;4.25;;;;;;;17.67;82.36;101706.88;3603323;22;20134;-62
2022/07/07 04:23:40;;;;;;;4.50;4.15;;;;;;;17.67;81.90;101704.16;3568036;40;20154;-63
2022/07/07 04:26:05;;;;;;;5.25;4.43;;;;;;;17.68;82.00;101706.72;3567705;40;20053;-64
2022/07/07 04:28:31;;;;;;;5.22;4.10;;;;;;;17.71;82.57;101709.22;3569266;40;20052;-64
2022/07/07 04:30:57;;;;;;;5.28;4.00;;;;;;;17.71;82.42;101711.94;3568204;40;20462;-63
2022/07/07 04:33:23;;;;;;;5.00;4.10;;;;;;;17.70;82.46;101710.22;3566992;40;20478;-63
2022/07/07 04:35:48;;;;;;;8.00;3.80;;;;;;;17.56;82.23;101691.38;3561961;40;20126;-63
2022/07/07 04:38:14;;;;;;;15.35;9.25;;;;;;;17.71;82.16;101717.38;3567905;40;20553;-64
2022/07/07 04:40:41;;;;;;;4.97;3.63;;;;;;;17.71;82.16;101717.38;3570232;40;20068;-64
2022/07/07 04:43:07;;;;;;;3.65;3.35;;;;;;;17.73;82.08;101723.56;3567637;40;20056;-63
2022/07/07 04:45:34;;;;;;;4.68;3.50;;;;;;;17.73;82.60;101729.00;3559306;40;20288;-64
2022/07/07 04:48:00;;;;;;;7.57;3.92;;;;;;;17.73;82.37;101733.56;3567525;40;20147;-64
2022/07/07 04:50:27;;;;;;;8.55;3.30;;;;;;;17.72;82.14;101738.13;3565198;40;20064;-63
2022/07/07 04:52:53;;;;;;;3.83;3.10;;;;;;;17.71;80.99;101744.56;3567128;40;20048;-64
2022/07/07 04:55:19;;;;;;;3.47;2.72;;;;;;;17.64;80.53;101744.19;3568789;40;20083;-64
2022/07/07 04:57:45;;;;;;;4.22;2.65;;;;;;;17.63;81.00;101747.00;3568603;40;20170;-63
2022/07/07 05:00:11;;;;;;;3.28;2.28;;;;;;;17.62;81.65;101762.44;3569003;40;20392;-63
2022/07/07 05:02:37;;;;;;;3.65;2.20;;;;;;;17.58;80.64;101749.22;3570409;40;20053;-63
2022/07/07 05:05:03;;;;;;;2.38;2.17;;;;;;;17.55;81.02;101750.31;3568946;40;20059;-63
2022/07/07 05:07:29;;;;;;;3.35;1.98;;;;;;;17.54;80.53;101747.72;3565695;40;20096;-63
2022/07/07 05:09:55;;;;;;;3.60;1.80;;;;;;;17.61;80.50;101751.72;3566548;40;20080;-64
2022/07/07 05:12:20;;;;;;;2.72;1.60;;;;;;;17.58;79.62;101765.53;3566602;40;20314;-65
2022/07/07 05:14:47;;;;;;;5.30;1.80;;;;;;;17.58;79.98;101758.25;3570016;40;20150;-63
2022/07/07 05:17:13;;;;;;;4.00;1.55;;;;;;;17.58;79.84;101769.13;3570235;40;20100;-63
2022/07/07 05:19:38;;;;;;;3.40;1.48;;;;;;;17.57;80.32;101774.66;3571603;40;20080;-63
2022/07/07 05:22:04;;;;;;;4.38;1.95;;;;;;;17.58;81.13;101771.84;3570995;40;20057;-63
2022/07/07 05:24:30;;;;;;;4.15;1.55;;;;;;;17.63;80.93;101774.19;3573503;40;20085;-63
2022/07/07 05:26:55;;;;;;;5.95;1.90;;;;;;;17.64;80.31;101778.66;3576147;40;20064;-64
2022/07/07 05:29:21;;;;;;;5.63;1.77;;;;;;;17.50;80.38;101760.66;3571604;40;20057;-63
2022/07/07 05:31:46;;;;;;;3.95;1.60;;;;;;;17.64;80.38;101781.38;3572724;40;20415;-63
2022/07/07 05:34:12;;;;;;;3.75;1.85;;;;;;;17.64;79.95;101781.38;3570710;40;20130;-64
2022/07/07 05:36:37;;;;;;;4.05;1.60;;;;;;;17.64;80.34;101790.41;3569171;40;20069;-63
2022/07/07 05:39:03;;;;;;;5.10;1.67;;;;;;;17.66;79.89;101787.56;3567787;40;20163;-63
2022/07/07 05:41:28;;;;;;;3.80;1.67;;;;;;;17.64;80.24;101784.97;3569030;40;20089;-61
2022/07/07 05:43:54;;;;;;;6.68;2.00;;;;;;;17.73;80.14;101791.56;3569277;40;20048;-63
2022/07/07 05:46:20;;;;;;;4.90;1.80;;;;;;;17.80;80.36;101786.53;3569523;40;20686;-63
2022/07/07 05:48:45;;;;;;;3.90;1.30;;;;;;;17.86;79.78;101794.22;3568223;40;20061;-65
2022/07/07 05:51:11;;;;;;;5.95;1.40;;;;;;;17.95;79.65;101796.25;3570356;40;20488;-62
2022/07/07 05:53:36;;;;;;;6.25;1.73;;;;;;;18.01;78.58;101805.75;3570549;40;20585;-65
2022/07/07 05:56:03;;;;;;;3.58;1.35;;;;;;;18.06;78.02;101828.03;3572031;40;20121;-65
2022/07/07 05:58:29;;;;;;;7.00;1.60;;;;;;;18.13;78.14;101815.69;3569227;40;20068;-63
2022/07/07 06:00:55;;;;;;;4.25;1.50;;;;;;;18.12;76.73;101815.81;3570648;40;20071;-63
2022/07/07 06:03:21;;;;;;;5.57;1.95;;;;;;;18.20;76.90;101816.06;3571444;40;20057;-64
2022/07/07 06:05:47;;;;;;;5.93;1.55;;;;;;;18.20;77.16;101827.81;3568741;40;20052;-63
2022/07/07 06:08:13;;;;;;;3.72;1.25;;;;;;;18.16;77.24;101837.22;3569716;40;20088;-63
2022/07/07 06:10:39;;;;;;;3.45;1.63;;;;;;;18.12;77.29;101830.28;3560504;40;20803;-63
2022/07/07 06:13:04;;;;;;;4.10;1.48;;;;;;;18.10;77.68;101848.59;3570115;40;20060;-63
2022/07/07 06:15:33;;;;;;;5.95;1.60;;;;;;;18.09;78.96;101863.19;3571263;40;20053;-64
2022/07/07 06:18:05;;;;;;;5.70;2.55;;;;;;;18.15;78.75;101862.72;3567612;40;20042;-64
2022/07/07 06:20:31;;;;;;;4.85;1.67;;;;;;;18.19;77.61;101864.19;3564492;40;20057;-64
2022/07/07 06:22:58;;;;;;;4.00;1.63;;;;;;;18.23;77.55;101875.72;3572204;40;20053;-64
2022/07/07 06:25:23;;;;;;;5.63;1.35;;;;;;;18.29;76.33;101872.53;3570456;40;21756;-64
2022/07/07 06:27:49;;;;;;;5.13;1.50;;;;;;;18.33;75.09;101880.34;3567521;40;20061;-63
2022/07/07 06:30:15;;;;;;;5.18;1.48;;;;;;;18.33;72.77;101883.06;3565835;40;20049;-63
2022/07/07 06:32:41;;;;;;;7.82;1.38;;;;;;;18.33;72.12;101880.34;3566152;40;20403;-62
2022/07/07 06:35:07;;;;;;;6.65;1.85;;;;;;;18.34;72.10;101881.22;3570026;40;20049;-62
2022/07/07 06:37:33;;;;;;;8.65;2.05;;;;;;;18.38;70.09;101881.84;3570215;40;20055;-62
2022/07/07 06:39:59;;;;;;;5.53;1.48;;;;;;;18.41;70.91;101890.63;3570628;40;20052;-63
2022/07/07 06:42:24;;;;;;;8.60;1.80;;;;;;;18.48;69.94;101880.13;3570741;40;20115;-62
2022/07/07 06:44:50;;;;;;;5.78;1.63;;;;;;;18.55;69.31;101890.44;3569667;40;20048;-65
2022/07/07 06:47:16;;;;;;;7.65;2.17;;;;;;;18.64;67.99;101886.09;3566160;40;20296;-62
2022/07/07 06:49:41;;;;;;;11.20;2.17;;;;;;;18.72;68.98;101905.47;3568492;40;20083;-63
2022/07/07 06:52:08;;;;;;;8.85;1.92;;;;;;;18.77;67.42;101913.25;3571165;40;20133;-63
2022/07/07 06:54:33;;;;;;;9.02;2.15;;;;;;;18.75;66.87;101910.66;3562542;40;20059;-63
2022/07/07 06:56:59;;;;;;;5.20;1.85;;;;;;;18.69;66.69;101923.88;3574056;40;20057;-63
2022/07/07 06:59:24;;;;;;;6.78;1.60;;;;;;;18.53;67.02;101930.50;3572151;40;20061;-62
2022/07/07 07:01:50;;;;;;;5.28;1.50;;;;;;;18.42;68.58;101926.88;3570961;40;20053;-62
2022/07/07 07:04:16;;;;;;;4.80;1.25;;;;;;;18.28;69.67;101925.22;3562521;40;20323;-63
2022/07/07 07:06:42;;;;;;;7.32;1.92;;;;;;;18.25;71.57;101925.47;3572113;40;20110;-63
2022/07/07 07:09:09;;;;;;;6.78;1.33;;;;;;;18.44;72.23;101919.47;3571038;40;20386;-63
2022/07/07 07:11:35;;;;;;;5.03;1.38;;;;;;;18.70;70.45;101904.66;3562295;40;20084;-63
2022/07/07 07:14:02;;;;;;;5.97;1.38;;;;;;;19.04;70.31;101912.06;3571107;40;20052;-63
2022/07/07 07:16:29;;;;;;;7.90;2.20;;;;;;;19.08;67.61;101873.50;3555323;40;20049;-63
2022/07/07 07:18:56;;;;;;;5.55;1.63;;;;;;;19.51;66.63;101912.78;3568392;40;20051;-64
2022/07/07 07:21:22;;;;;;;3.85;1.17;;;;;;;19.81;64.33;101931.22;3568842;40;20067;-62
2022/07/07 07:23:47;;;;;;;4.90;1.35;;;;;;;19.73;63.18;101906.41;3570751;40;20056;-63
2022/07/07 07:26:13;;;;;;;6.25;1.40;;;;;;;19.92;64.20;101931.19;3559954;40;20430;-61
2022/07/07 07:28:39;;;;;;;5.78;1.58;;;;;;;19.99;62.96;101921.50;3570580;40;20049;-64
2022/07/07 07:31:05;;;;;;;5.50;1.60;;;;;;;20.13;60.88;101932.09;3571453;40;20061;-64
2022/07/07 07:33:31;;;;;;;5.97;1.65;;;;;;;19.93;59.71;101941.09;3568679;40;20079;-63
2022/07/07 07:35:58;;;;;;;4.30;1.23;;;;;;;20.02;61.62;101948.53;3571065;40;20380;-62
2022/07/07 07:38:24;;;;;;;3.97;1.55;;;;;;;20.06;61.90;101916.38;3572458;40;20060;-63
2022/07/07 07:40:50;;;;;;;5.95;1.80;;;;;;;20.41;60.30;101957.06;3573802;40;20272;-62
2022/07/07 07:43:16;;;;;;;6.32;1.70;;;;;;;20.37;59.91;101940.06;3571789;40;20048;-62
2022/07/07 07:45:41;;;;;;;7.90;1.88;;;;;;;20.38;59.09;101958.19;3567897;40;20083;-62
2022/07/07 07:48:07;;;;;;;7.35;1.55;;;;;;;20.25;60.27;101952.03;3566942;40;20049;-62
2022/07/07 07:50:33;;;;;;;5.68;1.73;;;;;;;20.07;59.83;101959.91;3568843;40;20044;-62
2022/07/07 07:53:03;;;;;;;7.90;1.92;;;;;;;20.01;61.12;101965.00;3567142;40;20385;-62
2022/07/07 07:55:30;;;;;;;7.43;1.40;;;;;;;19.89;60.05;101964.19;3567868;40;20065;-60
2022/07/07 07:57:56;;;;;;;5.63;1.33;;;;;;;19.78;61.19;101964.22;3571101;40;20051;-62
2022/07/07 08:00:22;;;;;;;8.98;1.77;;;;;;;19.63;61.92;101974.47;3569587;40;20060;-62
2022/07/07 08:02:49;;;;;;;4.68;1.60;;;;;;;19.27;66.75;101987.38;3570833;40;20044;-62
2022/07/07 08:05:18;;;;;;;5.57;1.40;;;;;;;18.88;68.47;101991.44;3571158;40;20052;-62
2022/07/07 08:07:45;;;;;;;5.18;1.10;;;;;;;18.59;70.40;101967.31;3572185;40;20303;-63
2022/07/07 08:10:14;;;;;;;5.90;1.50;;;;;;;18.56;69.47;101975.72;3561456;40;20111;-62
2022/07/07 08:12:43;;;;;;;5.07;1.33;;;;;;;18.57;70.16;101974.72;3569638;40;20091;-64
2022/07/07 08:15:10;;;;;;;6.15;1.45;;;;;;;18.65;69.84;101979.56;3571522;40;20134;-63
2022/07/07 08:17:35;;;;;;;6.82;1.40;;;;;;;18.82;69.25;101983.75;3570023;40;20052;-62
2022/07/07 08:20:02;;;;;;;3.70;0.93;;;;;;;18.99;68.28;101986.00;3568366;40;20419;-62
2022/07/07 08:22:28;;;;;;;5.43;1.25;;;;;;;19.12;67.36;101986.75;3567865;40;20063;-63
2022/07/07 08:24:53;;;;;;;4.35;1.25;;;;;;;19.27;67.13;101986.53;3568956;40;20064;-62
2022/07/07 08:27:20;;;;;;;4.38;1.30;;;;;;;19.32;67.00;101995.22;3571665;40;20057;-62
2022/07/07 08:29:45;;;;;;;4.15;1.30;;;;;;;19.38;67.01;101992.88;3570211;40;20053;-61
2022/07/07 08:32:12;;;;;;;4.70;1.52;;;;;;;19.55;66.64;101996.94;3570411;40;20060;-62
2022/07/07 08:34:39;;;;;;;4.95;1.33;;;;;;;19.63;65.96;102002.66;3566384;40;20101;-62
2022/07/07 08:37:05;;;;;;;9.18;1.83;;;;;;;19.68;65.55;101992.25;3571164;40;20414;-62
2022/07/07 08:39:31;;;;;;;4.28;1.45;;;;;;;19.66;64.56;102002.44;3569923;40;20106;-61
2022/07/07 08:41:59;;;;;;;2.80;1.60;;;;;;;19.54;64.42;101997.94;3575140;40;20376;-62
2022/07/07 08:44:25;;;;;;;5.78;1.60;;;;;;;19.45;67.20;102012.31;3575951;40;20067;-62
2022/07/07 08:46:52;;;;;;;5.95;1.20;;;;;;;19.27;66.70;101994.72;3569067;40;20103;-62
2022/07/07 08:49:18;;;;;;;4.43;1.38;;;;;;;19.21;67.40;102006.97;3570802;40;20057;-62
2022/07/07 08:51:45;;;;;;;6.28;1.58;;;;;;;19.27;68.35;102008.34;3567991;40;20119;-62
2022/07/07 08:54:14;;;;;;;5.20;1.40;;;;;;;19.77;68.12;101998.81;3560034;40;20783;-61
2022/07/07 08:56:42;;;;;;;5.15;1.58;;;;;;;20.33;64.34;102008.72;3570600;40;20146;-62
2022/07/07 08:59:13;;;;;;;4.68;1.30;;;;;;;20.46;61.68;102008.56;3570467;40;20065;-62
2022/07/07 09:01:40;;;;;;;4.30;1.38;;;;;;;20.50;60.06;102018.22;3573174;40;20089;-63
2022/07/07 09:04:06;;;;;;;6.90;1.83;;;;;;;20.54;61.12;102022.47;3570904;40;20346;-62
2022/07/07 09:06:33;;;;;;;5.40;1.67;;;;;;;20.48;60.71;102023.81;3570731;40;20379;-62
2022/07/07 09:09:01;;;;;;;4.63;1.38;;;;;;;20.36;60.95;102030.31;3572387;40;20053;-63
2022/07/07 09:11:33;;;;;;;4.07;1.45;;;;;;;20.12;61.57;102028.66;3570718;40;20052;-62
2022/07/07 09:14:14;;;;;;;5.07;1.50;;;;;;;19.89;64.19;102032.44;3569873;40;20099;-64
2022/07/07 09:16:41;;;;;;;6.40;1.63;;;;;;;19.71;66.23;102030.19;3571308;40;20399;-63
2022/07/07 09:19:22;;;;;;;9.05;2.08;;;;;;;19.74;68.15;102033.69;3572872;40;20049;-64
2022/07/07 09:21:49;;;;;;;5.38;1.58;;;;;;;19.82;66.66;102032.06;3570033;40;20052;-64
2022/07/07 09:24:15;;;;;;;5.07;1.30;;;;;;;19.80;65.08;102025.84;3566993;40;20049;-65
2022/07/07 09:26:47;;;;;;;3.95;1.33;;;;;;;19.92;62.93;102043.97;3573810;40;20049;-63
2022/07/07 09:29:23;;;;;;;4.85;1.23;;;;;;;20.05;62.52;102041.09;3572165;40;20052;-63
2022/07/07 09:31:55;;;;;;;7.22;1.38;;;;;;;20.36;61.30;102046.69;3571638;40;20089;-63
2022/07/07 09:34:25;;;;;;;5.35;1.23;;;;;;;20.40;60.25;102040.88;3570893;40;20380;-63
2022/07/07 09:39:43;;;;;;;5.20;1.30;;;;;;;20.35;60.24;102050.44;3572406;40;20132;-62
2022/07/07 09:42:33;;;;;;;5.55;1.58;;;;;;;20.32;60.44;102062.47;3573495;40;20059;-63
2022/07/07 09:45:06;;;;;;;3.63;1.48;;;;;;;20.34;59.92;102054.16;3572841;40;20053;-63
2022/07/07 09:47:35;;;;;;;4.30;1.20;;;;;;;20.45;60.14;102062.31;3568722;40;20073;-62
2022/07/07 09:50:09;;;;;;;3.78;1.17;;;;;;;20.67;59.54;102076.94;3570576;40;20114;-64
2022/07/07 09:52:41;;;;;;;5.82;1.02;;;;;;;20.55;57.96;102079.72;3572065;40;20048;-61
2022/07/07 09:55:11;;;;;;;4.97;1.55;;;;;;;20.36;59.39;102074.91;3573074;40;20089;-63
2022/07/07 09:57:39;;;;;;;4.93;1.25;;;;;;;20.21;59.75;102092.56;3567546;40;20060;-63
2022/07/07 10:00:07;;;;;;;3.78;1.00;;;;;;;20.06;60.68;102094.66;3571456;40;20064;-62
2022/07/07 10:02:35;;;;;;;4.80;1.13;;;;;;;19.86;61.94;102109.09;3568887;40;20383;-63
2022/07/07 10:05:01;;;;;;;5.20;1.60;;;;;;;19.64;63.57;102116.25;3571126;40;20057;-64
2022/07/07 10:07:34;;;;;;;4.22;1.23;;;;;;;19.46;65.18;102118.53;3570799;40;20063;-63
2022/07/07 10:10:12;;;;;;;3.50;1.45;;;;;;;19.24;67.12;102110.31;3570167;40;20075;-63
2022/07/07 10:12:51;;;;;;;5.35;1.20;;;;;;;19.25;68.84;102104.75;3569737;40;20376;-63
2022/07/07 10:15:18;;;;;;;4.53;1.33;;;;;;;19.45;68.96;102115.94;3570669;40;20044;-63
2022/07/07 10:17:44;;;;;;;5.03;1.45;;;;;;;19.71;67.50;102120.22;3569010;40;20410;-63
2022/07/07 10:20:11;;;;;;;5.97;1.90;;;;;;;19.87;65.70;102116.28;3570077;40;20085;-63
2022/07/07 10:22:38;;;;;;;2.42;1.05;;;;;;;19.79;65.15;102097.81;3617709;22;20068;-64
2022/07/07 10:25:10;;;;;;;2.95;1.08;;;;;;;19.71;64.92;102106.59;3591652;39;20130;-64
2022/07/07 10:27:42;;;;;;;7.72;1.48;;;;;;;19.77;65.21;102120.75;3591018;39;20072;-65
2022/07/07 10:30:08;;;;;;;4.70;1.13;;;;;;;19.49;64.35;102109.25;3589830;39;20067;-65
2022/07/07 10:32:37;;;;;;;3.45;1.13;;;;;;;19.49;65.15;102134.66;3580806;40;20121;-64
2022/07/07 10:35:11;;;;;;;2.78;1.10;;;;;;;19.40;65.08;102135.38;3581754;40;20048;-63
2022/07/07 10:37:53;;;;;;;3.60;1.30;;;;;;;19.42;66.37;102148.91;3581264;40;20292;-63
2022/07/07 10:40:27;;;;;;;2.67;0.90;;;;;;;19.47;65.75;102146.69;3580348;40;20092;-64
2022/07/07 10:43:05;;;;;;;3.83;1.30;;;;;;;19.59;65.66;102121.16;3581807;40;20071;-63
2022/07/07 10:45:31;;;;;;;2.92;1.17;;;;;;;19.94;64.99;102144.81;3579820;40;20130;-64
2022/07/07 10:47:57;;;;;;;5.75;1.30;;;;;;;20.14;62.69;102145.94;3581417;40;20048;-64
2022/07/07 10:50:31;;;;;;;2.95;0.90;;;;;;;20.21;62.05;102127.19;3580216;40;20553;-66
2022/07/07 10:52:58;;;;;;;3.83;1.10;;;;;;;20.41;61.15;102153.72;3580202;40;20052;-65
2022/07/07 10:55:52;;;;;;;2.58;1.00;;;;;;;20.33;60.98;102162.56;3580201;40;20110;-66
2022/07/07 10:58:58;;;;;;;6.53;1.73;;;;;;;20.13;64.39;102169.63;3581640;40;20056;-62
2022/07/07 11:01:31;;;;;;;1.10;0.95;;;;;;;19.73;67.95;102174.69;3578569;40;20141;-62
2022/07/07 11:03:58;;;;;;;3.97;1.67;;;;;;;19.43;69.69;102162.41;3581638;40;20052;-62
2022/07/07 11:06:24;;;;;;;3.47;0.95;;;;;;;19.34;69.47;102170.44;3576854;40;20050;-63
2022/07/07 11:09:01;;;;;;;2.83;1.00;;;;;;;19.22;68.36;102178.59;3583085;40;20053;-62
2022/07/07 11:11:28;;;;;;;4.63;1.20;;;;;;;19.22;69.15;102184.06;3579965;40;20064;-63
2022/07/07 11:14:07;;;;;;;4.20;1.42;;;;;;;19.42;69.58;102189.81;3581977;40;20075;-63
2022/07/07 11:16:33;;;;;;;4.57;1.50;;;;;;;19.64;70.56;102187.19;3583541;40;20125;-63
2022/07/07 11:19:03;;;;;;;7.10;1.52;;;;;;;19.96;68.60;102181.03;3580441;40;20099;-66
2022/07/07 11:21:43;;;;;;;4.72;1.63;;;;;;;20.22;67.48;102181.66;3577630;40;20053;-66
2022/07/07 11:24:22;;;;;;;5.80;1.90;;;;;;;20.41;64.93;102191.94;3579166;40;20063;-63
2022/07/07 11:26:56;;;;;;;4.30;1.75;;;;;;;20.43;65.05;102195.44;3581786;40;20064;-63
2022/07/07 11:29:22;;;;;;;4.85;1.83;;;;;;;20.24;65.94;102176.09;3580187;40;20060;-62